Time;durP1;ratioP1;P1;durP2;ratioP2;P2;SDS_P1;SDS_P2;PMS_P1;PMS_P2;Temp;Humidity;BMP_temperature;BMP_pressure;BME280_temperature;BME280_humidity;BME280_pressure;Samples;Min_cycle;Max_cycle;Signal;HPM_P1;HPM_P2
2022/05/28 00:01:14;;;;;;;2.23;1.10;;;9.00;18.90;;;;;;10357103;28;20296;-78
2022/05/28 00:06:36;;;;;;;2.93;0.63;;;9.00;11.70;;;;;;10342055;28;20202;-80
2022/05/28 00:11:57;;;;;;;2.93;1.03;;;9.00;19.20;;;;;;10341098;28;20521;-80
2022/05/28 00:17:18;;;;;;;2.53;1.13;;;9.00;29.80;;;;;;10341691;28;20223;-80
2022/05/28 00:22:42;;;;;;;2.17;1.10;;;8.90;25.10;;;;;;10355644;28;20199;-80
2022/05/28 00:28:04;;;;;;;2.30;1.10;;;8.90;26.60;;;;;;10341821;28;20221;-81
2022/05/28 00:33:25;;;;;;;2.70;0.90;;;8.90;56.60;;;;;;10355146;28;20205;-78
2022/05/28 00:38:46;;;;;;;4.97;1.20;;;8.80;31.70;;;;;;10340374;28;20241;-80
2022/05/28 00:44:09;;;;;;;2.17;0.87;;;8.80;25.80;;;;;;10354580;28;20198;-80
2022/05/28 00:49:32;;;;;;;2.20;0.83;;;8.80;34.00;;;;;;10354602;28;20232;-80
2022/05/28 00:54:54;;;;;;;6.90;1.30;;;8.80;27.10;;;;;;10355511;28;20405;-81
2022/05/28 01:00:20;;;;;;;1.90;0.83;;;8.70;20.90;;;;;;10355522;28;20217;-78
2022/05/28 01:05:52;;;;;;;1.80;0.97;;;8.60;36.20;;;;;;10354596;28;20232;-78
2022/05/28 01:11:39;;;;;;;2.97;1.00;;;8.60;44.30;;;;;;10354506;28;20237;-77
2022/05/28 01:17:13;;;;;;;2.73;0.80;;;8.60;44.60;;;;;;10355206;28;20199;-78
2022/05/28 01:23:12;;;;;;;0.93;0.70;;;8.60;43.20;;;;;;10354350;28;20227;-78
2022/05/28 01:28:39;;;;;;;4.17;0.83;;;8.60;51.60;;;;;;10334633;28;20215;-78
2022/05/28 01:34:03;;;;;;;2.73;1.10;;;8.60;26.80;;;;;;10351367;28;20209;-78
2022/05/28 01:39:25;;;;;;;2.10;1.03;;;8.60;25.50;;;;;;10334393;28;20268;-79
2022/05/28 01:44:49;;;;;;;3.27;1.00;;;8.60;44.90;;;;;;10337312;28;20208;-78
2022/05/28 01:50:14;;;;;;;6.27;2.63;;;8.70;25.50;;;;;;10342876;28;20212;-78
2022/05/28 01:55:40;;;;;;;1.93;1.10;;;8.60;68.90;;;;;;10342131;28;20260;-79
2022/05/28 02:01:04;;;;;;;6.77;1.57;;;8.50;75.90;;;;;;10342244;28;20237;-81
2022/05/28 02:06:26;;;;;;;1.60;0.73;;;;;;;;;;10320745;28;20193;-81
2022/05/28 02:11:49;;;;;;;4.43;0.90;;;8.30;99.90;;;;;;10350045;28;20370;-80
2022/05/28 02:17:22;;;;;;;3.87;1.10;;;8.20;99.90;;;;;;10361591;28;20199;-80
2022/05/28 02:23:09;;;;;;;3.50;1.10;;;8.20;99.90;;;;;;10346379;28;20505;-80
2022/05/28 02:28:32;;;;;;;3.70;1.00;;;8.20;99.90;;;;;;10360140;28;20494;-81
2022/05/28 02:33:53;;;;;;;1.70;0.90;;;8.20;99.90;;;;;;10360966;28;20268;-80
2022/05/28 02:39:14;;;;;;;3.03;0.97;;;8.20;99.90;;;;;;10359196;28;20245;-80
2022/05/28 02:44:35;;;;;;;2.43;0.87;;;8.30;99.90;;;;;;10360336;28;20204;-78
2022/05/28 02:49:56;;;;;;;2.40;1.00;;;8.30;99.90;;;;;;10345522;28;20500;-80
2022/05/28 02:55:18;;;;;;;3.43;0.70;;;8.30;99.90;;;;;;10359775;28;20269;-80
2022/05/28 03:00:39;;;;;;;2.63;0.80;;;8.40;99.90;;;;;;10358135;28;20255;-78
2022/05/28 03:06:00;;;;;;;2.60;1.00;;;8.40;99.90;;;;;;10358131;28;20212;-78
2022/05/28 03:11:21;;;;;;;1.90;0.97;;;8.40;99.90;;;;;;10330229;28;20213;-78
2022/05/28 03:16:44;;;;;;;8.83;3.13;;;8.30;99.90;;;;;;10344427;28;20208;-79
2022/05/28 03:22:05;;;;;;;2.10;0.90;;;8.30;99.90;;;;;;10357483;28;20229;-79
2022/05/28 03:27:26;;;;;;;3.47;1.23;;;8.30;99.90;;;;;;10357523;28;20205;-78
2022/05/28 03:32:47;;;;;;;1.97;0.90;;;8.30;99.90;;;;;;10343415;28;20216;-77
2022/05/28 03:38:09;;;;;;;3.97;0.70;;;8.40;99.90;;;;;;10343401;28;20231;-80
2022/05/28 03:43:30;;;;;;;1.53;0.77;;;8.40;99.90;;;;;;10356993;28;20209;-78
2022/05/28 03:48:56;;;;;;;4.13;0.70;;;8.30;99.90;;;;;;10343010;28;20212;-80
2022/05/28 03:54:18;;;;;;;0.90;0.70;;;8.20;99.90;;;;;;10342805;28;20215;-80
2022/05/28 03:59:39;;;;;;;2.30;0.80;;;8.10;99.90;;;;;;10342650;28;20238;-79
2022/05/28 04:05:00;;;;;;;3.20;0.80;;;8.10;99.90;;;;;;10355922;28;20203;-78
2022/05/28 04:10:22;;;;;;;0.73;0.70;;;8.10;99.90;;;;;;10341693;28;20366;-81
2022/05/28 04:15:43;;;;;;;1.33;0.73;;;8.10;99.90;;;;;;10341916;28;20550;-80
2022/05/28 04:21:04;;;;;;;0.70;0.60;;;8.00;99.90;;;;;;10328164;28;20248;-80
2022/05/28 04:26:26;;;;;;;1.53;0.70;;;8.00;99.90;;;;;;10356408;28;20358;-79
2022/05/28 04:31:47;;;;;;;1.10;0.60;;;8.20;99.90;;;;;;10356358;28;20563;-79
2022/05/28 04:37:08;;;;;;;3.30;0.83;;;8.40;99.90;;;;;;10355018;28;20322;-81
2022/05/28 04:42:29;;;;;;;1.20;0.60;;;8.50;99.90;;;;;;10354927;28;20229;-81
2022/05/28 04:47:51;;;;;;;2.80;1.00;;;8.50;99.90;;;;;;10341033;28;20429;-80
2022/05/28 04:53:12;;;;;;;2.13;1.60;;;8.60;99.90;;;;;;10354629;28;20216;-80
2022/05/28 04:58:33;;;;;;;3.40;1.30;;;8.60;99.90;;;;;;10355590;28;20222;-80
2022/05/28 05:03:54;;;;;;;1.20;0.70;;;8.60;99.90;;;;;;10355521;28;20266;-79
2022/05/28 05:09:15;;;;;;;2.10;0.70;;;8.80;99.90;;;;;;10354873;28;20202;-81
2022/05/28 05:14:36;;;;;;;1.37;0.53;;;9.00;99.90;;;;;;10354412;28;20237;-81
2022/05/28 05:19:57;;;;;;;2.47;0.70;;;8.90;99.90;;;;;;10354135;28;20221;-80
2022/05/28 05:25:18;;;;;;;1.83;1.03;;;8.80;99.90;;;;;;10360860;28;20393;-81
2022/05/28 05:30:39;;;;;;;1.63;0.90;;;8.80;99.90;;;;;;10361906;28;20205;-81
2022/05/28 05:36:00;;;;;;;2.13;0.80;;;9.00;98.20;;;;;;10362963;28;20244;-78
2022/05/28 05:41:21;;;;;;;3.63;1.20;;;8.90;99.90;;;;;;10362638;28;20225;-81
2022/05/28 05:46:43;;;;;;;1.47;0.80;;;8.90;99.90;;;;;;10347318;28;20202;-78
2022/05/28 05:52:05;;;;;;;5.80;3.00;;;9.00;99.90;;;;;;10347707;28;20232;-81
2022/05/28 05:57:26;;;;;;;1.90;1.00;;;9.20;99.90;;;;;;10361095;28;20205;-80
2022/05/28 06:02:48;;;;;;;2.23;1.03;;;9.40;94.00;;;;;;10333468;28;20443;-77
2022/05/28 06:08:10;;;;;;;2.00;0.73;;;9.30;86.30;;;;;;10360757;28;20200;-78
2022/05/28 06:13:32;;;;;;;2.67;0.50;;;9.40;54.70;;;;;;10356923;28;20207;-78
2022/05/28 06:18:53;;;;;;;1.03;0.70;;;9.30;66.60;;;;;;10360040;28;20283;-77
2022/05/28 06:24:14;;;;;;;1.60;0.77;;;9.40;90.40;;;;;;10346646;28;20191;-78
2022/05/28 06:29:35;;;;;;;1.37;0.97;;;9.70;53.90;;;;;;10345989;28;20206;-78
2022/05/28 06:34:56;;;;;;;2.03;1.00;;;10.00;99.70;;;;;;10359396;28;20269;-78
2022/05/28 06:40:18;;;;;;;2.33;0.60;;;10.50;1.00;;;;;;10359313;28;20252;-78
2022/05/28 06:45:39;;;;;;;2.73;0.70;;;11.10;1.00;;;;;;10359005;28;20195;-78
2022/05/28 06:51:03;;;;;;;2.60;0.63;;;11.50;1.00;;;;;;10345202;28;20511;-78
2022/05/28 06:56:24;;;;;;;1.07;0.40;;;11.10;80.70;;;;;;10331378;28;20253;-79
2022/05/28 07:01:46;;;;;;;1.70;0.90;;;10.90;1.00;;;;;;10344901;28;20264;-78
2022/05/28 07:07:07;;;;;;;1.83;0.70;;;11.80;25.00;;;;;;10358467;28;20193;-79
2022/05/28 07:12:28;;;;;;;2.27;0.97;;;12.20;19.20;;;;;;10356050;28;20213;-79
2022/05/28 07:17:49;;;;;;;1.13;0.60;;;13.10;99.90;;;;;;10358118;28;20243;-77
2022/05/28 07:23:16;;;;;;;2.00;1.07;;;13.40;99.90;;;;;;10358654;28;20243;-78
2022/05/28 07:28:39;;;;;;;4.17;1.10;;;13.10;99.90;;;;;;10343410;28;20227;-78
2022/05/28 07:34:01;;;;;;;2.90;1.13;;;13.00;99.90;;;;;;10357384;28;20200;-78
2022/05/28 07:39:22;;;;;;;3.67;1.10;;;13.30;99.90;;;;;;10342891;28;20249;-79
2022/05/28 07:44:43;;;;;;;7.93;1.43;;;14.00;99.90;;;;;;10356108;28;20235;-78
2022/05/28 07:50:05;;;;;;;3.00;1.10;;;13.50;99.90;;;;;;10356245;28;20511;-78
2022/05/28 07:55:29;;;;;;;2.90;1.20;;;12.90;98.80;;;;;;10342431;28;20275;-78
2022/05/28 08:00:51;;;;;;;4.17;1.00;;;12.80;85.90;;;;;;10356237;28;20225;-78
2022/05/28 08:06:12;;;;;;;2.23;1.03;;;12.50;86.70;;;;;;10342027;28;20256;-79
2022/05/28 08:11:33;;;;;;;2.20;0.90;;;12.60;70.90;;;;;;10355123;28;20282;-78
2022/05/28 08:16:54;;;;;;;2.50;0.73;;;13.70;73.90;;;;;;10356370;28;20197;-79
2022/05/28 08:27:55;;;;;;;2.97;1.20;;;13.60;95.60;;;;;;10341269;28;20233;-79
2022/05/28 08:33:18;;;;;;;4.78;1.20;;;14.00;96.90;;;;;;10354746;28;20528;-81
2022/05/28 08:38:42;;;;;;;5.97;1.73;;;14.40;95.40;;;;;;10327225;28;20314;-81
2022/05/28 08:44:37;;;;;;;2.63;1.00;;;15.30;92.90;;;;;;10355742;28;20469;-81
2022/05/28 08:49:58;;;;;;;2.55;1.15;;;16.10;92.30;;;;;;10354188;28;20230;-79
2022/05/28 08:55:24;;;;;;;2.53;0.90;;;15.90;89.70;;;;;;10355233;28;20219;-81
2022/05/28 09:00:50;;;;;;;2.20;1.00;;;15.40;92.00;;;;;;10354531;28;20228;-79
2022/05/28 09:06:23;;;;;;;3.63;1.10;;;14.80;94.70;;;;;;10353972;28;20214;-80
2022/05/28 09:11:57;;;;;;;6.80;1.92;;;14.80;95.50;;;;;;10339632;28;20210;-80
2022/05/28 09:17:24;;;;;;;4.25;1.00;;;15.40;95.10;;;;;;10340147;28;20578;-81
2022/05/28 09:22:46;;;;;;;6.20;1.92;;;15.40;94.60;;;;;;10339710;28;20241;-80
2022/05/28 09:28:24;;;;;;;2.65;1.08;;;15.40;94.70;;;;;;10340286;28;20193;-78
2022/05/28 09:34:01;;;;;;;7.03;2.70;;;15.30;94.80;;;;;;10354728;28;20199;-80
2022/05/28 09:39:37;;;;;;;3.22;1.15;;;15.90;93.20;;;;;;10353242;28;20308;-81
2022/05/28 09:45:07;;;;;;;2.70;1.25;;;16.00;93.40;;;;;;10339741;28;20234;-79
2022/05/28 09:50:38;;;;;;;4.82;1.73;;;15.30;95.60;;;;;;10353492;28;20475;-81
2022/05/28 09:56:09;;;;;;;4.72;0.80;;;14.50;99.90;;;;;;10354058;28;20201;-81
2022/05/28 10:01:31;;;;;;;2.03;1.17;;;13.50;1.00;;;;;;10339465;28;20279;-80
2022/05/28 10:06:54;;;;;;;4.87;1.27;;;13.00;1.00;;;;;;10339292;28;20210;-81
2022/05/28 10:12:21;;;;;;;2.13;0.80;;;13.00;1.00;;;;;;10359873;28;20208;-79
2022/05/28 10:17:51;;;;;;;1.00;0.88;;;13.30;1.00;;;;;;10361205;28;20224;-81
2022/05/28 10:23:23;;;;;;;2.87;1.30;;;13.40;1.00;;;;;;10360798;28;20235;-79
2022/05/28 10:28:53;;;;;;;3.90;1.58;;;13.30;1.00;;;;;;10359775;28;20201;-81
2022/05/28 10:34:36;;;;;;;1.27;1.13;;;13.10;1.00;;;;;;10360888;28;20191;-80
2022/05/28 10:40:09;;;;;;;2.60;1.20;;;12.80;1.00;;;;;;10345938;28;20302;-80
2022/05/28 10:45:42;;;;;;;1.90;1.13;;;12.60;1.00;;;;;;10360199;28;20222;-79
2022/05/28 10:51:11;;;;;;;1.60;1.30;;;12.40;1.00;;;;;;10358361;28;20217;-78
2022/05/28 10:56:55;;;;;;;0.90;0.70;;;12.50;1.00;;;;;;10358486;28;20224;-79
2022/05/28 11:02:32;;;;;;;1.60;0.90;;;12.40;1.00;;;;;;10344670;28;20240;-78
2022/05/28 11:08:02;;;;;;;1.47;0.80;;;12.30;1.00;;;;;;10344168;28;20200;-79
2022/05/28 11:13:53;;;;;;;2.33;1.37;;;12.40;1.00;;;;;;10339691;28;20240;-78
2022/05/28 11:19:32;;;;;;;4.77;1.40;;;12.50;1.00;;;;;;10343776;28;20220;-78
2022/05/28 11:24:55;;;;;;;2.40;1.47;;;12.60;1.00;;;;;;10343602;28;20204;-79
2022/05/28 11:30:22;;;;;;;2.03;1.13;;;12.60;1.00;;;;;;10330247;28;20277;-79
2022/05/28 11:35:58;;;;;;;2.77;1.83;;;12.40;1.00;;;;;;10343443;28;20233;-78
2022/05/28 11:41:33;;;;;;;2.27;1.20;;;12.30;1.00;;;;;;10357128;28;20515;-78
2022/05/28 11:47:09;;;;;;;2.83;1.90;;;12.10;1.00;;;;;;10357768;28;20264;-78
2022/05/28 11:52:45;;;;;;;3.40;1.97;;;12.10;1.00;;;;;;10356835;28;20200;-78
2022/05/28 11:58:24;;;;;;;1.63;1.00;;;11.90;1.80;;;;;;10328977;28;20247;-78
2022/05/28 12:03:46;;;;;;;4.53;2.00;;;11.60;22.00;;;;;;10356376;28;20271;-79
2022/05/28 12:09:18;;;;;;;3.90;2.10;;;11.50;48.70;;;;;;10341866;28;20272;-79
2022/05/28 12:14:41;;;;;;;2.57;1.43;;;11.50;51.90;;;;;;10357128;28;20208;-78
2022/05/28 12:20:08;;;;;;;3.23;1.93;;;11.50;71.90;;;;;;10356263;28;20232;-78
2022/05/28 12:25:29;;;;;;;1.80;1.40;;;11.50;69.20;;;;;;10355720;28;20441;-78
2022/05/28 12:30:53;;;;;;;1.30;1.20;;;11.50;99.90;;;;;;10356370;28;20207;-78
2022/05/28 12:36:26;;;;;;;2.17;1.40;;;11.80;99.90;;;;;;10340993;28;20252;-78
2022/05/28 12:41:59;;;;;;;1.20;0.80;;;12.20;54.10;;;;;;10354817;28;20228;-79
2022/05/28 12:47:28;;;;;;;2.07;1.20;;;12.30;37.80;;;;;;10341069;28;20431;-79
2022/05/28 12:52:53;;;;;;;2.17;1.10;;;12.30;50.30;;;;;;10354834;28;20201;-78
2022/05/28 12:58:23;;;;;;;0.80;0.80;;;12.20;61.90;;;;;;10355616;28;20200;-79
2022/05/28 13:03:45;;;;;;;0.80;0.77;;;12.00;49.40;;;;;;10354541;28;20193;-78
2022/05/28 13:09:11;;;;;;;1.60;1.00;;;11.90;50.60;;;;;;10354918;28;20514;-78
2022/05/28 13:14:32;;;;;;;2.33;1.00;;;12.00;82.30;;;;;;10354275;28;20203;-78
2022/05/28 13:20:17;;;;;;;2.57;0.80;;;12.10;59.50;;;;;;10355041;28;20227;-79
2022/05/28 13:25:54;;;;;;;1.43;0.80;;;12.50;71.10;;;;;;10326672;28;20205;-78
2022/05/28 13:31:18;;;;;;;0.77;0.68;;;13.00;18.80;;;;;;10353925;28;20431;-79
2022/05/28 13:36:40;;;;;;;1.77;0.85;;;13.20;10.60;;;;;;10340053;28;20295;-78
2022/05/28 13:42:07;;;;;;;2.75;1.10;;;13.20;1.00;;;;;;10353553;28;20228;-78
2022/05/28 13:47:34;;;;;;;5.47;2.27;;;13.10;1.00;;;;;;10360811;28;20203;-78
2022/05/28 13:52:58;;;;;;;3.57;1.40;;;12.70;24.20;;;;;;10361105;28;20216;-78
2022/05/28 13:58:22;;;;;;;1.63;1.17;;;12.50;36.10;;;;;;10361339;28;20194;-78
2022/05/28 14:03:43;;;;;;;2.30;1.87;;;12.50;50.50;;;;;;10347467;28;20256;-78
2022/05/28 14:09:05;;;;;;;1.27;1.10;;;12.50;71.90;;;;;;10361345;28;20199;-77
2022/05/28 14:14:28;;;;;;;2.33;1.00;;;12.50;54.30;;;;;;10361510;28;20196;-78
2022/05/28 14:19:56;;;;;;;2.70;1.10;;;12.30;37.90;;;;;;10346851;28;20516;-77
2022/05/28 14:25:26;;;;;;;1.73;1.27;;;12.30;53.60;;;;;;10359973;28;20211;-78
2022/05/28 14:30:49;;;;;;;1.60;1.07;;;12.20;74.10;;;;;;10360043;28;20197;-78
2022/05/28 14:36:14;;;;;;;1.63;1.10;;;12.10;99.90;;;;;;10359520;28;20248;-78
2022/05/28 14:41:35;;;;;;;1.57;1.47;;;12.00;99.90;;;;;;10359400;28;20545;-78
2022/05/28 14:46:56;;;;;;;9.57;2.17;;;12.00;99.90;;;;;;10359304;28;20196;-78
2022/05/28 14:52:20;;;;;;;5.13;2.20;;;12.10;99.90;;;;;;10359403;28;20487;-78
2022/05/28 14:57:43;;;;;;;5.50;1.70;;;12.00;99.20;;;;;;10357979;28;20482;-81
2022/05/28 15:03:09;;;;;;;3.17;1.60;;;11.90;99.90;;;;;;10358732;28;20617;-81
2022/05/28 15:08:32;;;;;;;3.27;1.70;;;11.90;99.90;;;;;;10358346;28;20201;-80
2022/05/28 15:14:11;;;;;;;2.17;1.53;;;11.90;99.90;;;;;;10358038;28;20518;-80
2022/05/28 15:19:33;;;;;;;1.57;1.10;;;11.80;99.90;;;;;;10344498;28;20224;-81
2022/05/28 15:24:55;;;;;;;1.50;1.27;;;11.80;99.90;;;;;;10357919;28;20435;-81
2022/05/28 15:30:20;;;;;;;7.03;1.40;;;11.80;99.90;;;;;;10344595;28;20211;-81
2022/05/28 15:41:23;;;;;;;2.90;1.50;;;11.90;99.90;;;;;;10357982;28;20295;-78
2022/05/28 15:46:44;;;;;;;1.83;1.20;;;12.00;99.90;;;;;;10357876;28;20255;-78
2022/05/28 15:52:06;;;;;;;2.57;1.33;;;11.90;99.90;;;;;;10357846;28;20592;-78
2022/05/28 15:57:31;;;;;;;3.80;1.37;;;11.90;99.90;;;;;;10356604;28;20216;-79
2022/05/28 16:03:12;;;;;;;3.87;1.20;;;12.00;99.90;;;;;;10356477;28;20247;-78
2022/05/28 16:08:54;;;;;;;4.40;1.50;;;11.80;99.90;;;;;;10355735;28;20219;-79
2022/05/28 16:14:29;;;;;;;4.77;2.80;;;11.80;99.90;;;;;;10333734;28;20566;-79
2022/05/28 16:19:51;;;;;;;3.80;2.00;;;11.70;99.90;;;;;;10301916;28;20224;-78
2022/05/28 16:25:12;;;;;;;5.03;2.30;;;11.70;99.90;;;;;;10315133;28;20276;-78
2022/05/28 16:30:36;;;;;;;6.10;2.57;;;11.80;99.90;;;;;;10315120;28;20367;-79
2022/05/28 16:35:57;;;;;;;2.90;1.90;;;11.90;99.90;;;;;;10301301;28;20312;-78
2022/05/28 16:41:20;;;;;;;3.37;1.63;;;11.70;99.90;;;;;;10316585;28;20439;-79
2022/05/28 16:46:42;;;;;;;2.67;1.60;;;11.60;99.90;;;;;;10354664;28;20216;-78
2022/05/28 16:52:03;;;;;;;3.30;1.70;;;11.60;99.90;;;;;;10355683;28;20194;-78
2022/05/28 16:57:27;;;;;;;5.00;1.83;;;11.60;99.90;;;;;;10340822;28;20224;-78
2022/05/28 17:02:48;;;;;;;4.10;1.73;;;11.50;99.90;;;;;;10354360;28;20228;-78
2022/05/28 17:08:10;;;;;;;2.63;1.40;;;11.50;99.90;;;;;;10354073;28;20215;-79
2022/05/28 17:13:32;;;;;;;3.73;1.60;;;11.40;99.90;;;;;;10354817;28;20234;-79
2022/05/28 17:18:53;;;;;;;3.10;1.70;;;11.40;99.90;;;;;;10355805;28;20501;-79
2022/05/28 17:24:25;;;;;;;2.43;1.37;;;11.40;99.90;;;;;;10348913;28;20507;-78
2022/05/28 17:29:46;;;;;;;6.37;1.73;;;11.40;99.90;;;;;;10349082;28;20267;-79
2022/05/28 17:35:10;;;;;;;5.33;2.10;;;11.30;99.90;;;;;;10348342;28;20261;-78
2022/05/28 17:40:34;;;;;;;1.60;1.40;;;11.20;99.90;;;;;;10362997;28;20224;-79
2022/05/28 17:46:15;;;;;;;2.67;1.80;;;11.20;99.90;;;;;;10362732;28;20209;-79
2022/05/28 17:51:37;;;;;;;4.40;1.70;;;11.30;99.90;;;;;;10375311;28;20650;-78
2022/05/28 17:56:58;;;;;;;3.63;1.70;;;11.30;99.90;;;;;;10362225;28;20202;-80
2022/05/28 18:02:27;;;;;;;3.07;1.93;;;11.30;99.90;;;;;;10361343;28;20224;-78
2022/05/28 18:07:49;;;;;;;5.43;2.40;;;11.30;99.90;;;;;;10361748;28;20197;-80
2022/05/28 18:13:10;;;;;;;4.57;1.90;;;11.20;99.90;;;;;;10354371;28;20212;-81
2022/05/28 18:18:38;;;;;;;4.57;2.30;;;11.10;99.90;;;;;;10360421;28;20224;-81
2022/05/28 18:24:03;;;;;;;3.40;2.20;;;11.00;99.90;;;;;;10360348;28;20223;-80
2022/05/28 18:29:24;;;;;;;6.27;2.23;;;11.00;99.90;;;;;;10360179;28;20199;-81
2022/05/28 18:34:46;;;;;;;3.73;1.93;;;11.00;99.90;;;;;;10346260;28;20226;-81
2022/05/28 18:40:11;;;;;;;5.10;2.37;;;11.00;99.90;;;;;;10360017;28;20268;-81
2022/05/28 18:45:33;;;;;;;4.43;2.50;;;10.90;99.90;;;;;;10360320;28;20213;-80
2022/05/28 18:50:56;;;;;;;4.70;2.10;;;10.90;99.90;;;;;;10345539;28;20209;-81
2022/05/28 18:56:20;;;;;;;3.10;2.20;;;10.90;99.90;;;;;;10359442;28;20388;-80
2022/05/28 19:01:41;;;;;;;4.37;2.60;;;10.90;99.90;;;;;;10345271;28;20304;-79
2022/05/28 19:07:10;;;;;;;4.13;1.80;;;10.90;99.90;;;;;;10359667;28;20433;-80
2022/05/28 19:12:43;;;;;;;2.93;1.90;;;10.80;99.90;;;;;;10359099;28;20207;-80
2022/05/28 19:18:05;;;;;;;3.43;2.20;;;10.80;99.90;;;;;;10330763;28;20201;-80
2022/05/28 19:23:26;;;;;;;4.20;2.10;;;10.80;99.90;;;;;;10359095;28;20601;-80
2022/05/28 19:28:48;;;;;;;5.07;2.03;;;10.80;99.90;;;;;;10344525;28;20192;-80
2022/05/28 19:34:09;;;;;;;3.80;1.90;;;10.70;99.90;;;;;;10357272;28;20199;-79
2022/05/28 19:39:31;;;;;;;5.23;2.17;;;10.70;99.90;;;;;;10357391;28;20236;-80
2022/05/28 19:44:56;;;;;;;7.43;2.37;;;10.80;99.90;;;;;;10343408;28;20369;-80
2022/05/28 19:50:19;;;;;;;9.63;1.57;;;10.70;99.90;;;;;;10357083;28;20231;-81
2022/05/28 19:55:41;;;;;;;4.63;1.90;;;10.70;99.90;;;;;;10343105;28;20280;-80
2022/05/28 20:01:01;;;;;;;2.10;1.50;;;10.80;99.90;;;;;;10356602;28;20513;-80
2022/05/28 20:06:25;;;;;;;3.67;1.63;;;10.70;99.90;;;;;;10356704;28;20242;-80
2022/05/28 20:11:46;;;;;;;4.20;1.47;;;10.70;99.90;;;;;;10355543;28;20207;-81
2022/05/28 20:17:09;;;;;;;7.13;1.90;;;10.70;99.90;;;;;;10355892;28;20359;-81
2022/05/28 20:22:30;;;;;;;8.47;2.07;;;10.70;99.90;;;;;;10355912;28;20231;-81
2022/05/28 20:27:51;;;;;;;6.27;2.30;;;10.70;99.90;;;;;;10355748;28;20211;-80
2022/05/28 20:33:20;;;;;;;9.23;2.13;;;10.70;99.90;;;;;;10355381;28;20220;-79
2022/05/28 20:38:41;;;;;;;3.23;1.50;;;10.60;99.90;;;;;;10355326;28;20231;-78
2022/05/28 20:44:04;;;;;;;5.83;2.10;;;10.60;99.90;;;;;;10354881;28;20301;-79
2022/05/28 20:49:25;;;;;;;4.97;1.80;;;10.60;99.90;;;;;;10355104;28;20216;-78
2022/05/28 20:54:46;;;;;;;8.33;1.97;;;10.60;99.90;;;;;;10340212;28;20205;-79
2022/05/28 21:00:09;;;;;;;3.57;1.57;;;10.60;99.90;;;;;;10340751;28;20231;-80
2022/05/28 21:05:31;;;;;;;7.50;1.97;;;10.60;99.90;;;;;;10354732;28;20219;-78
2022/05/28 21:10:52;;;;;;;4.47;1.37;;;10.50;99.90;;;;;;10355050;28;20395;-78
2022/05/28 21:16:19;;;;;;;5.83;1.87;;;10.50;99.90;;;;;;10353953;28;20199;-79
2022/05/28 21:21:40;;;;;;;3.67;1.60;;;10.50;99.90;;;;;;10340384;28;20297;-78
2022/05/28 21:32:43;;;;;;;5.93;2.03;;;10.50;99.90;;;;;;10340184;28;20212;-78
2022/05/28 21:38:10;;;;;;;9.63;2.10;;;10.50;99.90;;;;;;10340277;28;20301;-78
2022/05/28 21:43:32;;;;;;;5.03;1.80;;;10.50;99.90;;;;;;10353434;28;20227;-78
2022/05/28 21:48:53;;;;;;;4.37;2.10;;;10.60;99.90;;;;;;10353990;28;20242;-78
2022/05/28 21:54:19;;;;;;;7.93;1.90;;;10.60;99.90;;;;;;10339990;28;20408;-78
2022/05/28 21:59:40;;;;;;;4.37;2.07;;;10.60;99.90;;;;;;10353608;28;20196;-78
2022/05/28 22:05:02;;;;;;;7.27;2.40;;;10.70;99.90;;;;;;10341538;28;20233;-78
2022/05/28 22:10:23;;;;;;;8.63;2.60;;;10.60;99.90;;;;;;10360597;28;20204;-78
2022/05/28 22:15:45;;;;;;;9.83;2.30;;;10.60;99.90;;;;;;10360327;28;20218;-78
2022/05/28 22:21:08;;;;;;;7.10;2.27;;;10.70;99.90;;;;;;10360720;28;20270;-78
2022/05/28 22:26:29;;;;;;;5.40;2.33;;;10.60;99.90;;;;;;10360073;28;20528;-78
2022/05/28 22:31:52;;;;;;;7.03;2.20;;;10.70;99.90;;;;;;10360456;28;20197;-78
2022/05/28 22:37:13;;;;;;;6.63;2.10;;;10.70;99.90;;;;;;10359650;28;20240;-80
2022/05/28 22:42:34;;;;;;;4.80;2.13;;;10.60;99.90;;;;;;10359305;28;20547;-79
2022/05/28 22:48:06;;;;;;;5.30;2.40;;;10.60;99.90;;;;;;10360611;28;20201;-77
2022/05/28 22:53:30;;;;;;;6.93;1.83;;;10.60;99.90;;;;;;10359404;28;20211;-79
2022/05/28 22:58:51;;;;;;;5.33;2.20;;;10.70;99.90;;;;;;10360101;28;20207;-78
2022/05/28 23:04:13;;;;;;;4.37;1.60;;;10.70;99.90;;;;;;10359099;28;20255;-78
2022/05/28 23:09:34;;;;;;;6.40;2.10;;;10.60;99.90;;;;;;10344307;28;20209;-78
2022/05/28 23:14:56;;;;;;;5.77;1.60;;;10.60;99.90;;;;;;10358408;28;20206;-78
2022/05/28 23:20:27;;;;;;;6.23;2.30;;;10.60;99.90;;;;;;10357349;28;20504;-78
2022/05/28 23:25:51;;;;;;;6.43;1.80;;;10.60;99.90;;;;;;10357837;28;20207;-78
2022/05/28 23:31:18;;;;;;;8.23;2.17;;;10.50;99.90;;;;;;10344659;28;20201;-78
2022/05/28 23:36:42;;;;;;;2.77;1.60;;;10.60;99.90;;;;;;10343848;28;20263;-78
2022/05/28 23:42:04;;;;;;;4.80;1.90;;;10.60;99.90;;;;;;10356978;28;20236;-78
2022/05/28 23:47:27;;;;;;;8.43;2.13;;;10.50;99.90;;;;;;10343698;28;20206;-77
2022/05/28 23:52:49;;;;;;;4.33;2.20;;;10.50;99.90;;;;;;10342865;28;20203;-78
2022/05/28 23:58:10;;;;;;;3.63;1.80;;;10.50;99.90;;;;;;10329374;28;20515;-81
